createdAt,value
2023-12-19T00:01:44.200Z,48.87
2023-12-19T00:03:44.494Z,48.65
2023-12-19T00:06:43.801Z,49.2
2023-12-19T00:08:44.357Z,49.21
2023-12-19T00:11:43.979Z,49.39
2023-12-19T00:14:43.742Z,49.55
2023-12-19T00:16:43.794Z,49.83
2023-12-19T00:19:43.892Z,50.28
2023-12-19T00:22:44.038Z,49.51
2023-12-19T00:25:43.842Z,49.64
2023-12-19T00:28:43.768Z,49.59
2023-12-19T00:30:43.833Z,49.17
2023-12-19T00:33:43.754Z,48.95
2023-12-19T00:35:44.301Z,48.58
2023-12-19T00:38:43.760Z,48.78
2023-12-19T00:40:44.024Z,49.21
2023-12-19T00:43:43.801Z,49.25
2023-12-19T00:45:44.498Z,49.23
2023-12-19T00:48:43.837Z,48.6
2023-12-19T00:50:43.761Z,49.16
2023-12-19T00:52:44.010Z,48.62
2023-12-19T00:55:43.710Z,49.6
2023-12-19T00:57:43.761Z,49.22
2023-12-19T00:59:43.878Z,49.44
2023-12-19T01:01:44.514Z,49.57
2023-12-19T01:04:43.883Z,48.78
2023-12-19T01:07:43.782Z,48.18
2023-12-19T01:09:43.976Z,48.4
2023-12-19T01:11:44.331Z,48.34
2023-12-19T01:14:43.761Z,48.59
2023-12-19T01:17:43.761Z,48.88
2023-12-19T01:20:43.734Z,49.02
2023-12-19T01:22:44.519Z,48.81
2023-12-19T01:25:44.015Z,48.91
2023-12-19T01:28:43.844Z,48.47
2023-12-19T01:30:44.095Z,48.7
2023-12-19T01:33:44.676Z,48.25
2023-12-19T01:36:55.867Z,47.83
2023-12-19T01:39:43.824Z,47.28
2023-12-19T01:42:43.852Z,47.54
2023-12-19T01:44:44.184Z,47.84
2023-12-19T01:47:43.768Z,47.82
2023-12-19T01:49:43.775Z,46.52
2023-12-19T01:51:43.829Z,48.42
2023-12-19T01:54:43.734Z,48.71
2023-12-19T01:56:44.494Z,48.57
2023-12-19T01:59:43.716Z,48.49
2023-12-19T02:01:43.768Z,48.54
2023-12-19T02:04:43.928Z,48.36
2023-12-19T02:07:43.722Z,48.4
2023-12-19T02:09:44.688Z,48.17
2023-12-19T02:13:43.734Z,47.28
2023-12-19T02:15:43.989Z,47.17
2023-12-19T02:18:44.109Z,47.87
2023-12-19T02:20:44.077Z,47.25
2023-12-19T02:22:44.560Z,47.22
2023-12-19T02:25:43.761Z,47.15
2023-12-19T02:27:43.776Z,47.84
2023-12-19T02:29:44.541Z,48.2
2023-12-19T02:32:44.204Z,48.22
2023-12-19T02:35:44.053Z,48.02
2023-12-19T02:38:44.644Z,47.12
2023-12-19T02:41:44.580Z,47.71
2023-12-19T02:44:44.645Z,46.8
2023-12-19T02:47:44.247Z,46.8
2023-12-19T02:50:43.719Z,47.61
2023-12-19T02:52:44.382Z,47.27
2023-12-19T02:55:44.258Z,47.49
2023-12-19T02:58:44.230Z,47.77
2023-12-19T03:00:44.497Z,48.14
2023-12-19T03:03:44.338Z,48.47
2023-12-19T03:06:44.345Z,48.58
2023-12-19T03:09:43.757Z,48.24
2023-12-19T03:11:44.309Z,48.31
2023-12-19T03:14:43.769Z,47.77
2023-12-19T03:16:44.327Z,47.7
2023-12-19T03:19:43.951Z,47.96
2023-12-19T03:21:43.770Z,47.47
2023-12-19T03:24:43.754Z,48.07
2023-12-19T03:27:44.112Z,48.26
2023-12-19T03:30:43.949Z,48.93
2023-12-19T03:33:43.810Z,49.16
2023-12-19T03:35:43.751Z,49.42
2023-12-19T03:38:43.735Z,49.31
2023-12-19T03:40:44.620Z,48.82
2023-12-19T03:43:43.753Z,48.73
2023-12-19T03:46:43.726Z,48.45
2023-12-19T03:49:43.938Z,48.63
2023-12-19T03:51:43.892Z,47.88
2023-12-19T03:54:44.713Z,47.98
2023-12-19T03:57:43.771Z,48.48
2023-12-19T04:00:44.604Z,48.8
2023-12-19T04:03:43.776Z,49.22
2023-12-19T04:05:43.757Z,49.04
2023-12-19T04:07:44.035Z,49.53
2023-12-19T04:10:43.753Z,49.13
2023-12-19T04:13:44.408Z,49.19
2023-12-19T04:16:43.764Z,48.57
2023-12-19T04:18:43.858Z,48.76
2023-12-19T04:21:43.856Z,48.35
2023-12-19T04:24:43.798Z,47.61
2023-12-19T04:27:43.971Z,48.04
2023-12-19T04:30:44.204Z,47.52
2023-12-19T04:34:43.772Z,47.83
2023-12-19T04:37:43.731Z,48.92
2023-12-19T04:39:44.210Z,49.19
2023-12-19T04:42:43.978Z,48.49
2023-12-19T04:44:43.768Z,49.28
2023-12-19T04:46:43.894Z,49.07
2023-12-19T04:49:43.813Z,49
2023-12-19T04:51:43.915Z,48.96
2023-12-19T04:54:44.556Z,48.41
2023-12-19T04:57:44.428Z,47.83
2023-12-19T05:00:43.860Z,47.36
2023-12-19T05:02:43.957Z,47.71
2023-12-19T05:04:43.935Z,47.2
2023-12-19T05:07:44.620Z,47.76
2023-12-19T05:10:43.737Z,47.33
2023-12-19T05:12:44.220Z,48.83
2023-12-19T05:15:43.725Z,49.21
2023-12-19T05:18:44.155Z,49.15
2023-12-19T05:21:43.876Z,48.94
2023-12-19T05:23:43.744Z,48.42
2023-12-19T05:25:44.063Z,47.92
2023-12-19T05:28:44.194Z,48.12
2023-12-19T05:31:43.781Z,47.83
2023-12-19T05:33:44.435Z,47.78
2023-12-19T05:36:43.739Z,47.91
2023-12-19T05:38:43.738Z,47.75
2023-12-19T05:40:44.382Z,48.01
2023-12-19T05:43:43.791Z,48.41
2023-12-19T05:46:43.739Z,48.52
2023-12-19T05:48:44.590Z,48.65
2023-12-19T05:50:44.648Z,48.38
2023-12-19T05:53:43.734Z,48.09
2023-12-19T05:56:44.418Z,48.18
2023-12-19T05:59:43.713Z,47.34
2023-12-19T06:01:44.238Z,47.57
2023-12-19T06:04:43.764Z,47.98
2023-12-19T06:06:43.786Z,47.54
2023-12-19T06:09:43.920Z,47.48
2023-12-19T06:11:44.489Z,47.17
2023-12-19T06:14:43.718Z,47.64
2023-12-19T06:16:44.052Z,48.67
2023-12-19T06:18:44.728Z,47.93
2023-12-19T06:21:43.816Z,48.88
2023-12-19T06:23:44.537Z,48.25
2023-12-19T06:26:43.750Z,48.42
2023-12-19T06:28:43.923Z,48.5
2023-12-19T06:31:44.162Z,48.08
2023-12-19T06:33:44.461Z,47.9
2023-12-19T06:36:44.069Z,47.33
2023-12-19T06:39:43.782Z,47.32
2023-12-19T06:41:44.306Z,46.66
2023-12-19T06:44:44.639Z,47.05
2023-12-19T06:47:44.522Z,48.1
2023-12-19T06:50:43.792Z,47.7
2023-12-19T06:53:43.696Z,48.15
2023-12-19T06:55:44.713Z,48.41
2023-12-19T06:58:44.197Z,48.31
2023-12-19T07:01:43.839Z,47.72
2023-12-19T07:04:44.662Z,47.16
2023-12-19T07:07:43.710Z,47.39
2023-12-19T07:09:43.824Z,47.06
2023-12-19T07:11:43.760Z,46.94
2023-12-19T07:13:44.071Z,47.09
2023-12-19T07:15:44.160Z,47.21
2023-12-19T07:18:43.817Z,47.29
2023-12-19T07:21:44.426Z,47.56
2023-12-19T07:24:44.020Z,47.62
2023-12-19T07:27:44.529Z,48.1
2023-12-19T07:30:43.953Z,47.59
2023-12-19T07:33:44.176Z,47.6
2023-12-19T07:36:44.201Z,47.73
2023-12-19T07:39:43.764Z,47.24
2023-12-19T07:41:43.794Z,47.25
2023-12-19T07:44:44.566Z,46.78
2023-12-19T07:47:43.827Z,46.89
2023-12-19T07:49:44.032Z,46.91
2023-12-19T07:52:43.825Z,47.15
2023-12-19T07:54:44.321Z,47.34
2023-12-19T07:56:44.428Z,47.57
2023-12-19T07:59:44.673Z,47.98
2023-12-19T08:02:44.275Z,47.82
2023-12-19T08:05:44.723Z,47.34
2023-12-19T08:08:43.760Z,47.3
2023-12-19T08:10:44.355Z,47.23
2023-12-19T08:13:43.751Z,46.83
2023-12-19T08:15:44.869Z,46.8
2023-12-19T08:18:43.902Z,46.77
2023-12-19T08:20:43.852Z,47.09
2023-12-19T08:24:43.838Z,47.25
2023-12-19T08:27:43.867Z,47.6
2023-12-19T08:29:44.841Z,47.89
2023-12-19T08:32:44.007Z,47.64
2023-12-19T08:34:43.827Z,47.83
2023-12-19T08:36:44.049Z,47.69
2023-12-19T08:39:43.752Z,47.48
2023-12-19T08:41:43.741Z,47.38
2023-12-19T08:43:43.835Z,47.23
2023-12-19T08:46:44.230Z,47.3
2023-12-19T08:48:44.322Z,47.11
2023-12-19T08:51:44.308Z,47.07
2023-12-19T08:54:43.857Z,47.45
2023-12-19T08:57:43.767Z,47.67
2023-12-19T08:59:44.291Z,47.74
2023-12-19T09:02:44.759Z,48.35
2023-12-19T09:05:44.315Z,48.22
2023-12-19T09:08:44.405Z,48.11
2023-12-19T09:11:44.242Z,47.79
2023-12-19T09:14:43.787Z,48.16
2023-12-19T09:17:44.371Z,47.7
2023-12-19T09:19:44.500Z,47.56
2023-12-19T09:21:44.601Z,47.31
2023-12-19T09:24:43.740Z,47.33
2023-12-19T09:26:43.733Z,47.5
2023-12-19T09:28:44.400Z,47.61
2023-12-19T09:31:43.734Z,47.85
2023-12-19T09:34:44.664Z,47.99
2023-12-19T09:37:43.759Z,48.16
2023-12-19T09:39:44.740Z,47.98
2023-12-19T09:42:43.916Z,47.88
2023-12-19T09:44:44.708Z,47.96
2023-12-19T09:47:44.297Z,47.51
2023-12-19T09:49:44.868Z,47.58
2023-12-19T09:52:43.989Z,47.63
2023-12-19T09:55:44.268Z,47.73
2023-12-19T09:58:43.741Z,47.82
2023-12-19T10:00:44.265Z,47.86
2023-12-19T10:03:44.585Z,48.04
2023-12-19T10:06:49.226Z,47.99
2023-12-19T10:08:44.708Z,48.02
2023-12-19T10:11:43.703Z,47.7
2023-12-19T10:13:43.801Z,47.79
2023-12-19T10:16:43.823Z,47.34
2023-12-19T10:18:45.532Z,47.23
2023-12-19T10:21:43.747Z,47.05
2023-12-19T10:23:44.023Z,47.01
2023-12-19T10:25:46.048Z,47.18
2023-12-19T10:28:43.741Z,47.21
2023-12-19T10:31:43.717Z,47.52
2023-12-19T10:33:43.934Z,47.55
2023-12-19T10:36:44.200Z,47.74
2023-12-19T10:39:43.772Z,47.85
2023-12-19T10:41:43.718Z,47.95
2023-12-19T10:44:43.753Z,47.83
2023-12-19T10:46:43.777Z,47.81
2023-12-19T10:48:44.069Z,47.73
2023-12-19T10:50:44.199Z,47.45
2023-12-19T10:52:44.378Z,47.44
2023-12-19T10:55:43.726Z,47.93
2023-12-19T10:57:44.126Z,48.15
2023-12-19T10:59:44.304Z,48.47
2023-12-19T11:01:44.523Z,48.75
2023-12-19T11:04:44.280Z,49.18
2023-12-19T11:07:43.900Z,49.63
2023-12-19T11:10:43.752Z,49.81
2023-12-19T11:12:44.746Z,50.22
2023-12-19T11:15:43.765Z,50.64
2023-12-19T11:17:45.004Z,50.59
2023-12-19T11:20:44.001Z,50.6
2023-12-19T11:22:44.549Z,50.32
2023-12-19T11:25:44.114Z,49.99
2023-12-19T11:27:45.032Z,49.58
2023-12-19T11:30:45.108Z,49.69
2023-12-19T11:33:43.920Z,50.01
2023-12-19T11:35:43.757Z,50.25
2023-12-19T11:37:44.147Z,50.2
2023-12-19T11:39:44.644Z,50.2
2023-12-19T11:42:44.124Z,50.24
2023-12-19T11:45:44.120Z,50.78
2023-12-19T11:48:43.807Z,51.16
2023-12-19T11:50:44.556Z,51.01
2023-12-19T11:53:43.716Z,50.47
2023-12-19T11:55:44.597Z,49.98
2023-12-19T11:58:44.405Z,49.47
2023-12-19T12:01:43.929Z,49.3
2023-12-19T12:03:44.554Z,49.53
2023-12-19T12:05:44.564Z,49.57
2023-12-19T12:07:45.148Z,50.01
2023-12-19T12:10:43.728Z,49.96
2023-12-19T12:12:43.760Z,49.97
2023-12-19T12:15:44.304Z,50.33
2023-12-19T12:18:43.816Z,51.09
2023-12-19T12:20:44.087Z,51.11
2023-12-19T12:23:43.817Z,51.49
2023-12-19T12:26:43.705Z,51.15
2023-12-19T12:28:43.748Z,50.7
2023-12-19T12:30:44.899Z,50.49
2023-12-19T12:33:43.725Z,50.46
2023-12-19T12:35:43.770Z,50.47
2023-12-19T12:37:43.914Z,50.33
2023-12-19T12:39:44.106Z,50.34
2023-12-19T12:42:44.062Z,50.31
2023-12-19T12:44:44.255Z,50.21
2023-12-19T12:47:43.887Z,50.02
2023-12-19T12:49:44.629Z,49.88
2023-12-19T12:52:44.422Z,50.34
2023-12-19T12:55:44.005Z,50.69
2023-12-19T12:58:43.774Z,50.45
2023-12-19T13:00:45.637Z,50.23
2023-12-19T13:03:44.313Z,50.24
2023-12-19T13:06:44.250Z,49.83
2023-12-19T13:08:43.716Z,49.16
2023-12-19T13:10:44.420Z,49.05
2023-12-19T13:13:43.766Z,49.21
2023-12-19T13:16:44.130Z,49.38
2023-12-19T13:19:43.867Z,49.94
2023-12-19T13:22:43.884Z,50.17
2023-12-19T13:24:45.146Z,50.52
2023-12-19T13:27:43.997Z,50.75
2023-12-19T13:31:44.165Z,50.95
2023-12-19T13:34:42.973Z,51.22
2023-12-19T13:36:44.708Z,51.15
2023-12-19T13:39:44.057Z,50.95
2023-12-19T13:42:43.797Z,50.55
2023-12-19T13:44:44.185Z,50.14
2023-12-19T13:47:43.955Z,49.58
2023-12-19T13:49:43.823Z,49.33
2023-12-19T13:51:43.846Z,49.22
2023-12-19T13:54:44.308Z,49.42
2023-12-19T13:57:44.044Z,49.29
2023-12-19T14:00:43.780Z,49.52
2023-12-19T14:02:43.730Z,49.72
2023-12-19T14:05:43.736Z,50.3
2023-12-19T14:07:44.052Z,50.24
2023-12-19T14:10:43.806Z,50.65
2023-12-19T14:13:44.505Z,50.68
2023-12-19T14:16:44.311Z,50.54
2023-12-19T14:19:43.828Z,50.49
2023-12-19T14:22:43.792Z,50.02
2023-12-19T14:25:43.783Z,49.63
2023-12-19T14:28:43.797Z,49.59
2023-12-19T14:30:44.803Z,49.58
2023-12-19T14:33:43.807Z,49.75
2023-12-19T14:35:44.718Z,50.04
2023-12-19T14:38:44.230Z,50.32
2023-12-19T14:41:43.724Z,50.45
2023-12-19T14:44:43.746Z,50.44
2023-12-19T14:47:44.248Z,50.73
2023-12-19T14:49:43.802Z,50.83
2023-12-19T14:52:43.729Z,50.98
2023-12-19T14:55:43.707Z,51.27
2023-12-19T14:57:44.628Z,51.22
2023-12-19T15:00:44.565Z,51.21
2023-12-19T15:03:44.168Z,50.92
2023-12-19T15:05:44.496Z,50.92
2023-12-19T15:08:43.752Z,50.69
2023-12-19T15:10:43.821Z,50.27
2023-12-19T15:12:44.600Z,50.29
2023-12-19T15:15:44.204Z,50.73
2023-12-19T15:18:45.648Z,51.07
2023-12-19T15:21:43.774Z,51.24
2023-12-19T15:23:44.291Z,51.45
2023-12-19T15:26:44.506Z,52.25
2023-12-19T15:30:43.850Z,52.24
2023-12-19T15:32:44.439Z,52.57
2023-12-19T15:35:45.889Z,52.47
2023-12-19T15:38:44.461Z,52.12
2023-12-19T15:41:44.512Z,51.88
2023-12-19T15:44:43.752Z,51.67
2023-12-19T15:46:44.688Z,51.58
2023-12-19T15:49:44.843Z,51.65
2023-12-19T15:52:44.104Z,51.8
2023-12-19T15:55:44.284Z,51.94
2023-12-19T15:58:43.750Z,52.09
2023-12-19T16:00:44.025Z,52.37
2023-12-19T16:03:43.851Z,52.7
2023-12-19T16:05:43.921Z,52.65
2023-12-19T16:07:43.804Z,52.95
2023-12-19T16:10:44.208Z,53.12
2023-12-19T16:13:44.358Z,53.32
2023-12-19T16:16:44.374Z,53.02
2023-12-19T16:19:44.230Z,52.8
2023-12-19T16:22:45.884Z,52.27
2023-12-19T16:25:43.741Z,52.29
2023-12-19T16:27:44.581Z,51.86
2023-12-19T16:30:43.892Z,51.99
2023-12-19T16:32:44.891Z,52.31
2023-12-19T16:35:43.876Z,52.42
2023-12-19T16:37:44.610Z,53.01
2023-12-19T16:40:43.843Z,52.61
2023-12-19T16:42:44.203Z,52.76
2023-12-19T16:45:43.860Z,52.69
2023-12-19T16:48:44.578Z,53.02
2023-12-19T16:51:44.079Z,52.85
2023-12-19T16:54:44.316Z,53.69
2023-12-19T16:57:43.971Z,54.01
2023-12-19T17:00:44.645Z,53.66
2023-12-19T17:03:43.949Z,53.23
2023-12-19T17:05:44.630Z,53.37
2023-12-19T17:07:44.667Z,52.75
2023-12-19T17:10:43.757Z,52.87
2023-12-19T17:12:44.557Z,52.73
2023-12-19T17:14:44.311Z,52.98
2023-12-19T17:17:43.825Z,53
2023-12-19T17:19:44.918Z,53.17
2023-12-19T17:22:44.264Z,52.86
2023-12-19T17:25:44.017Z,53.71
2023-12-19T17:28:44.073Z,53.94
2023-12-19T17:30:44.600Z,53.69
2023-12-19T17:33:43.770Z,54.58
2023-12-19T17:35:43.751Z,53.94
2023-12-19T17:37:43.810Z,53.94
2023-12-19T17:39:49.780Z,54.1
2023-12-19T17:42:44.509Z,53.93
2023-12-19T17:45:44.220Z,53.63
2023-12-19T17:48:44.272Z,53.25
2023-12-19T17:51:44.200Z,53.86
2023-12-19T17:54:43.799Z,53.8
2023-12-19T17:56:44.687Z,53.49
2023-12-19T17:59:43.765Z,53.67
2023-12-19T18:01:43.904Z,54.23
2023-12-19T18:03:44.216Z,54.01
2023-12-19T18:06:43.740Z,54.72
2023-12-19T18:08:44.324Z,54.85
2023-12-19T18:11:44.031Z,55.32
2023-12-19T18:14:43.711Z,54.96
2023-12-19T18:16:43.753Z,55.65
2023-12-19T18:18:43.863Z,54.79
2023-12-19T18:20:44.550Z,54.24
2023-12-19T18:23:43.750Z,53.79
2023-12-19T18:26:43.746Z,52.71
2023-12-19T18:28:43.833Z,53.24
2023-12-19T18:30:44.353Z,53.8
2023-12-19T18:33:43.765Z,54.38
2023-12-19T18:35:44.524Z,54.1
2023-12-19T18:38:43.768Z,54.3
2023-12-19T18:40:43.969Z,53.91
2023-12-19T18:42:44.485Z,53.77
2023-12-19T18:45:43.800Z,53.76
2023-12-19T18:47:43.764Z,53.71
2023-12-19T18:50:44.139Z,54.15
2023-12-19T18:53:43.717Z,54.7
2023-12-19T18:55:44.170Z,54.36
2023-12-19T18:58:44.271Z,54.04
2023-12-19T19:01:43.912Z,53.92
2023-12-19T19:03:43.894Z,53.57
2023-12-19T19:05:44.209Z,52.92
2023-12-19T19:08:43.735Z,53.05
2023-12-19T19:10:43.801Z,53.76
2023-12-19T19:12:44.520Z,53.71
2023-12-19T19:15:43.782Z,53.45
2023-12-19T19:18:43.878Z,53.95
2023-12-19T19:21:44.095Z,53.93
2023-12-19T19:24:43.892Z,53.54
2023-12-19T19:27:43.765Z,53.91
2023-12-19T19:29:43.794Z,54.25
2023-12-19T19:32:44.011Z,54.52
2023-12-19T19:34:43.826Z,54.27
2023-12-19T19:37:44.329Z,54.3
2023-12-19T19:40:44.405Z,53.66
2023-12-19T19:42:44.039Z,53.59
2023-12-19T19:45:44.002Z,53.12
2023-12-19T19:48:44.552Z,52.62
2023-12-19T19:51:44.231Z,52.84
2023-12-19T19:54:43.816Z,52.71
2023-12-19T19:56:43.805Z,54.05
2023-12-19T19:59:43.832Z,53.55
2023-12-19T20:02:44.181Z,54.52
2023-12-19T20:05:43.767Z,53.57
2023-12-19T20:07:44.155Z,53.75
2023-12-19T20:10:43.738Z,53.62
2023-12-19T20:12:44.006Z,54.64
2023-12-19T20:15:43.737Z,54.96
2023-12-19T20:17:43.812Z,54.73
2023-12-19T20:20:43.770Z,53.45
2023-12-19T20:22:44.758Z,53.39
2023-12-19T20:25:43.782Z,53.11
2023-12-19T20:27:44.282Z,52.57
2023-12-19T20:29:44.345Z,52.4
2023-12-19T20:32:44.301Z,52.4
2023-12-19T20:35:44.077Z,52.89
2023-12-19T20:37:44.587Z,53.49
2023-12-19T20:40:44.160Z,53.63
2023-12-19T20:43:43.958Z,53.32
2023-12-19T20:45:44.267Z,53.94
2023-12-19T20:47:44.461Z,55.3
2023-12-19T20:50:43.911Z,54.97
2023-12-19T20:53:43.786Z,55.89
2023-12-19T20:56:43.763Z,55.34
2023-12-19T20:58:44.259Z,56.72
2023-12-19T21:01:44.345Z,55.26
2023-12-19T21:04:43.854Z,55.15
2023-12-19T21:07:43.782Z,54.66
2023-12-19T21:09:44.121Z,54.53
2023-12-19T21:11:44.317Z,53.93
2023-12-19T21:14:44.876Z,53.7
2023-12-19T21:17:43.822Z,53.85
2023-12-19T21:19:44.759Z,53.51
2023-12-19T21:22:44.875Z,54.29
2023-12-19T21:25:44.384Z,53.49
2023-12-19T21:28:43.769Z,55.23
2023-12-19T21:30:44.383Z,54.2
2023-12-19T21:33:44.342Z,54.34
2023-12-19T21:36:43.810Z,54.03
2023-12-19T21:38:43.865Z,53.65
2023-12-19T21:40:43.890Z,53.06
2023-12-19T21:42:44.728Z,54.54
2023-12-19T21:44:44.303Z,54.77
2023-12-19T21:47:43.952Z,53.72
2023-12-19T21:49:43.816Z,53.21
2023-12-19T21:52:43.738Z,52.64
2023-12-19T21:54:43.816Z,52.58
2023-12-19T21:57:44.381Z,52.59
2023-12-19T22:00:43.827Z,52.62
2023-12-19T22:03:44.547Z,53.16
2023-12-19T22:06:44.394Z,53.18
2023-12-19T22:09:48.535Z,53.37
2023-12-19T22:11:44.506Z,54.88
2023-12-19T22:14:43.749Z,54.34
2023-12-19T22:17:44.060Z,53.49
2023-12-19T22:19:43.834Z,53.72
2023-12-19T22:22:43.877Z,52.95
2023-12-19T22:24:43.801Z,52.76
2023-12-19T22:26:43.777Z,53.54
2023-12-19T22:28:44.067Z,53
2023-12-19T22:30:44.505Z,52.76
2023-12-19T22:33:44.467Z,53.29
2023-12-19T22:36:43.766Z,53.75
2023-12-19T22:38:43.978Z,53.05
2023-12-19T22:41:43.703Z,53.49
2023-12-19T22:43:43.742Z,53.69
2023-12-19T22:46:43.772Z,53.87
2023-12-19T22:49:44.051Z,54.47
2023-12-19T22:52:43.761Z,54.03
2023-12-19T22:54:45.131Z,53.68
2023-12-19T22:57:44.224Z,54.6
2023-12-19T22:59:44.300Z,54.28
2023-12-19T23:02:44.066Z,53.9
2023-12-19T23:05:43.817Z,53.35
2023-12-19T23:07:44.091Z,53.63
2023-12-19T23:09:45.881Z,52.98
2023-12-19T23:12:43.824Z,53.33
2023-12-19T23:15:43.961Z,53.77
2023-12-19T23:17:44.015Z,53.15
2023-12-19T23:20:43.837Z,53.09
2023-12-19T23:22:44.675Z,53.26
2023-12-19T23:25:44.184Z,53.25
2023-12-19T23:27:44.547Z,53.37
2023-12-19T23:30:43.779Z,53.62
2023-12-19T23:34:44.886Z,53.56
2023-12-19T23:37:44.052Z,54.4
2023-12-19T23:39:44.332Z,54.76
2023-12-19T23:42:43.790Z,53.44
2023-12-19T23:45:43.778Z,53.12
2023-12-19T23:47:43.916Z,53.54
2023-12-19T23:50:43.756Z,54.15
2023-12-19T23:52:44.366Z,54.84
2023-12-19T23:55:43.754Z,53.36
2023-12-19T23:57:44.014Z,53.77
